Карточка аэропорта UMIO

Внимание!
Информация на этой странице в стадии наполнения.
Если вы не увидели какой-то информации, или заметили неточность - пожалуйста сообщите нам!
Спасибо!
Команда RU-STAFF
Название аэропортаOrsha
Название аэропорта (англ.)Orsha
Превышение658 ft. (200.6 m.)
Координаты54°26.382', 30°17.766'
Высота перехода6000 ft
Эшелон переходаFL80; QNH<977hPa - FL90
Коды ответчика0037
Зона ОрВДМинск РПИ (UMMV)
Данные METARUMIO 082330Z 18004MPS 5000 BR OVC003 M02/M02 Q1015 NOSIG RMK QBB100 QFE744/0992
Проноз погоды (TAF)
NOTAMshow/hide NOTAM
AWOS   TABLE

Информация о ВПП

ВПП Длина ВПП (м.) Покрытие Курс ВПП Частота ILS
053001Цементобетон50110.9
233001Цементобетон230111.5

Диспетчерские позиции

Позывной Наименование органа УВД Частота
UMIO_APPOrsha Approach118.400
UMIO_TWROrsha Tower119.000

Сценарии

Сценарий
Нет результатов.


Спутниковое изображение